Time;durP1;ratioP1;P1;durP2;ratioP2;P2;SDS_P1;SDS_P2;PMS_P1;PMS_P2;Temp;Humidity;BMP_temperature;BMP_pressure;BME280_temperature;BME280_humidity;BME280_pressure;Samples;Min_cycle;Max_cycle;Signal;HPM_P1;HPM_P2
2022/03/20 00:02:24;;;;;;;64.93;36.65;;;1.00;99.90;;;;;;4904817;29;20750;-59
2022/03/20 00:04:53;;;;;;;73.32;37.55;;;0.90;99.90;;;;;;4906333;29;20043;-59
2022/03/20 00:07:20;;;;;;;60.60;34.90;;;0.90;99.90;;;;;;4905183;28;20042;-59
2022/03/20 00:09:51;;;;;;;61.75;34.75;;;0.80;99.90;;;;;;4904900;28;20046;-60
2022/03/20 00:12:18;;;;;;;56.50;33.47;;;0.80;99.90;;;;;;4905825;29;20401;-59
2022/03/20 00:14:45;;;;;;;59.55;35.08;;;0.80;99.90;;;;;;4887265;29;20058;-60
2022/03/20 00:17:13;;;;;;;67.20;38.00;;;0.80;99.90;;;;;;4907147;29;20619;-59
2022/03/20 00:19:40;;;;;;;63.05;35.97;;;0.70;99.90;;;;;;4904950;28;20051;-59
2022/03/20 00:22:08;;;;;;;72.18;37.55;;;0.70;99.90;;;;;;4889649;29;20051;-59
2022/03/20 00:24:35;;;;;;;64.40;35.92;;;0.70;99.90;;;;;;4907135;28;20035;-59
2022/03/20 00:27:02;;;;;;;61.00;33.47;;;0.70;99.90;;;;;;4906704;28;20047;-60
2022/03/20 00:29:29;;;;;;;59.22;32.40;;;0.60;99.90;;;;;;4906613;28;20043;-60
2022/03/20 00:31:57;;;;;;;62.10;35.00;;;0.60;99.90;;;;;;4905307;29;20058;-59
2022/03/20 00:34:24;;;;;;;60.53;31.75;;;0.60;99.90;;;;;;4905857;28;20054;-59
2022/03/20 00:36:51;;;;;;;62.22;32.42;;;0.60;99.90;;;;;;4904486;29;20062;-59
2022/03/20 00:39:18;;;;;;;64.40;34.90;;;0.60;99.90;;;;;;4905648;29;20043;-59
2022/03/20 00:41:45;;;;;;;63.25;35.47;;;0.50;99.90;;;;;;4906319;29;20110;-60
2022/03/20 00:44:11;;;;;;;58.53;34.55;;;0.50;99.90;;;;;;4906283;29;20039;-60
2022/03/20 00:46:38;;;;;;;;;;;0.50;99.90;;;;;;4906575;29;20035;-60
2022/03/20 00:49:05;;;;;;;70.60;38.78;;;0.40;99.90;;;;;;4903935;28;20729;-59
2022/03/20 00:51:33;;;;;;;66.38;34.50;;;0.40;99.90;;;;;;4906625;29;20556;-60
2022/03/20 00:54:00;;;;;;;60.03;33.58;;;0.40;99.90;;;;;;4906061;29;20060;-59
2022/03/20 00:56:27;;;;;;;67.38;36.08;;;0.40;99.90;;;;;;4887898;29;20426;-60
2022/03/20 00:58:54;;;;;;;66.82;35.45;;;0.30;99.90;;;;;;4888379;28;20880;-59
2022/03/20 01:01:21;;;;;;;63.00;34.97;;;0.30;99.90;;;;;;4904097;29;20055;-60
2022/03/20 01:03:48;;;;;;;60.17;36.47;;;0.30;99.90;;;;;;4904199;29;20039;-60
2022/03/20 01:06:17;;;;;;;67.22;37.17;;;0.30;99.90;;;;;;4905247;29;20036;-60
2022/03/20 01:08:44;;;;;;;58.05;32.65;;;0.30;99.90;;;;;;4905356;28;20039;-60
2022/03/20 01:11:12;;;;;;;58.75;33.78;;;0.30;99.90;;;;;;4905189;29;20047;-60
2022/03/20 01:13:39;;;;;;;55.10;33.38;;;0.30;99.90;;;;;;4905529;29;20094;-60
2022/03/20 01:16:06;;;;;;;;;;;0.30;99.90;;;;;;4905847;29;20054;-59
2022/03/20 01:18:33;;;;;;;46.87;26.10;;;0.30;99.90;;;;;;4904526;29;19923;-59
2022/03/20 01:21:00;;;;;;;67.43;36.75;;;0.30;99.90;;;;;;4905192;28;20485;-60
2022/03/20 01:23:27;;;;;;;63.42;35.03;;;0.30;99.90;;;;;;4903537;29;20126;-60
2022/03/20 01:25:54;;;;;;;64.50;34.22;;;0.30;99.90;;;;;;4905400;29;20051;-59
2022/03/20 01:28:23;;;;;;;64.55;36.13;;;0.30;99.90;;;;;;4904790;29;20054;-60
2022/03/20 01:30:50;;;;;;;66.28;36.10;;;0.30;99.90;;;;;;4904890;28;20058;-59
2022/03/20 01:33:17;;;;;;;60.85;35.10;;;0.30;99.90;;;;;;4904059;29;20047;-59
2022/03/20 01:35:45;;;;;;;60.75;34.22;;;0.30;99.90;;;;;;4904949;28;20146;-60
2022/03/20 01:38:18;;;;;;;63.30;37.30;;;0.30;99.90;;;;;;4905075;29;20082;-60
2022/03/20 01:40:49;;;;;;;66.18;35.72;;;0.30;99.90;;;;;;4903226;28;20046;-60
2022/03/20 01:43:17;;;;;;;61.97;33.67;;;0.30;99.90;;;;;;4904760;29;20055;-59
2022/03/20 01:45:44;;;;;;;66.13;35.97;;;0.20;99.90;;;;;;4903442;29;20039;-59
2022/03/20 01:48:11;;;;;;;61.58;34.95;;;0.20;99.90;;;;;;4904357;29;20047;-60
2022/03/20 01:50:39;;;;;;;65.35;36.95;;;0.10;99.90;;;;;;4904819;29;20305;-61
2022/03/20 01:53:07;;;;;;;59.42;34.67;;;0.10;99.90;;;;;;4904148;29;20819;-60
2022/03/20 01:55:34;;;;;;;58.63;34.63;;;0.10;99.90;;;;;;4905672;29;20047;-60
2022/03/20 01:58:01;;;;;;;66.68;37.50;;;0.10;99.90;;;;;;4905327;29;20201;-60
2022/03/20 02:00:32;;;;;;;71.90;38.90;;;0.10;99.90;;;;;;4903580;29;20055;-60
2022/03/20 02:03:00;;;;;;;62.92;35.40;;;0.00;99.90;;;;;;4902814;29;20129;-59
2022/03/20 02:05:27;;;;;;;72.38;39.75;;;0.00;99.90;;;;;;4904117;29;20516;-59
2022/03/20 02:07:54;;;;;;;69.18;37.70;;;0.00;99.90;;;;;;4903622;29;20233;-59
2022/03/20 02:10:21;;;;;;;62.22;36.03;;;0.00;99.90;;;;;;4902814;28;20051;-59
2022/03/20 02:12:48;;;;;;;73.10;40.70;;;0.00;99.90;;;;;;4905018;28;20050;-59
2022/03/20 02:15:16;;;;;;;69.95;38.15;;;0.00;99.90;;;;;;4903982;29;20241;-59
2022/03/20 02:17:43;;;;;;;70.53;38.88;;;0.00;99.90;;;;;;4904671;28;20557;-59
2022/03/20 02:20:11;;;;;;;82.32;43.13;;;-0.10;99.90;;;;;;4904234;28;20584;-60
2022/03/20 02:22:43;;;;;;;77.95;41.22;;;-0.10;99.90;;;;;;4904429;29;20050;-60
2022/03/20 02:25:14;;;;;;;71.75;39.67;;;-0.10;99.90;;;;;;4903326;29;20094;-60
2022/03/20 02:27:44;;;;;;;74.65;40.42;;;-0.10;99.90;;;;;;4903243;29;20564;-59
2022/03/20 02:30:14;;;;;;;69.97;40.13;;;0.00;99.90;;;;;;4903126;28;20058;-59
2022/03/20 02:32:47;;;;;;;75.90;40.35;;;-0.10;99.90;;;;;;4906252;29;20413;-59
2022/03/20 02:35:16;;;;;;;70.15;41.22;;;-0.10;99.90;;;;;;4890639;29;20485;-59
2022/03/20 02:37:49;;;;;;;72.30;41.25;;;-0.10;99.90;;;;;;4907256;29;20937;-61
2022/03/20 02:40:19;;;;;;;70.82;39.17;;;-0.10;99.90;;;;;;4908067;28;20815;-60
2022/03/20 02:42:48;;;;;;;75.85;42.03;;;-0.10;99.90;;;;;;4901290;29;20055;-60
2022/03/20 02:45:20;;;;;;;76.50;41.42;;;-0.10;99.90;;;;;;4906341;28;20277;-60
2022/03/20 02:47:49;;;;;;;84.15;41.72;;;-0.10;99.90;;;;;;4890072;29;20051;-59
2022/03/20 02:50:22;;;;;;;78.03;42.45;;;-0.20;99.90;;;;;;4907789;28;20050;-60
2022/03/20 02:52:58;;;;;;;76.18;41.20;;;-0.20;99.90;;;;;;4897330;29;20868;-59
2022/03/20 02:55:29;;;;;;;69.25;38.20;;;-0.20;99.90;;;;;;4908273;29;20110;-60
2022/03/20 02:57:59;;;;;;;65.40;37.78;;;-0.20;99.90;;;;;;4890596;29;20897;-60
2022/03/20 03:00:28;;;;;;;81.22;40.22;;;-0.10;99.90;;;;;;4905684;28;20288;-60
2022/03/20 03:02:57;;;;;;;69.05;38.88;;;-0.10;99.90;;;;;;4905830;29;20544;-60
2022/03/20 03:05:27;;;;;;;67.80;37.70;;;-0.10;99.90;;;;;;4907967;29;20490;-60
2022/03/20 03:11:01;;;;;;;65.97;35.65;;;-0.10;99.90;;;;;;4905626;28;20346;-60
2022/03/20 03:13:31;;;;;;;69.25;36.30;;;-0.10;99.90;;;;;;4907285;29;20043;-60
2022/03/20 03:16:00;;;;;;;56.53;34.45;;;-0.10;99.90;;;;;;4906759;29;20047;-59
2022/03/20 03:18:29;;;;;;;66.10;35.97;;;0.00;99.90;;;;;;4907633;29;20070;-60
2022/03/20 03:20:56;;;;;;;61.33;35.58;;;-0.10;99.90;;;;;;4888774;29;20043;-59
2022/03/20 03:23:26;;;;;;;65.07;37.50;;;-0.10;99.90;;;;;;4907139;29;20047;-60
2022/03/20 03:25:54;;;;;;;73.88;38.72;;;-0.10;99.90;;;;;;4906874;29;20210;-60
2022/03/20 03:28:23;;;;;;;69.15;36.85;;;-0.10;99.90;;;;;;4888773;29;20035;-59
2022/03/20 03:30:50;;;;;;;74.65;40.75;;;-0.10;99.90;;;;;;4906812;28;20088;-60
2022/03/20 03:33:19;;;;;;;63.97;36.13;;;-0.20;99.90;;;;;;4908279;28;20051;-60
2022/03/20 03:35:53;;;;;;;59.53;34.58;;;-0.20;99.90;;;;;;4907136;29;20043;-60
2022/03/20 03:38:35;;;;;;;71.63;39.58;;;-0.20;99.90;;;;;;4904778;29;20060;-60
2022/03/20 03:41:03;;;;;;;60.47;34.90;;;-0.20;99.90;;;;;;4906923;28;20047;-59
2022/03/20 03:43:30;;;;;;;74.22;40.25;;;-0.20;99.90;;;;;;4904299;28;20907;-60
2022/03/20 03:45:57;;;;;;;69.90;39.60;;;-0.20;99.90;;;;;;4908214;29;20195;-61
2022/03/20 03:48:25;;;;;;;72.05;39.85;;;-0.20;99.90;;;;;;4889234;29;20055;-60
2022/03/20 03:50:53;;;;;;;73.63;38.72;;;-0.20;99.90;;;;;;4906450;28;20047;-60
2022/03/20 03:53:21;;;;;;;66.57;38.60;;;-0.20;99.90;;;;;;4888372;29;20193;-59
2022/03/20 03:55:47;;;;;;;71.32;38.30;;;-0.20;99.90;;;;;;4907079;29;20065;-60
2022/03/20 03:58:14;;;;;;;;;;;-0.20;99.90;;;;;;4905587;29;20150;-59
2022/03/20 04:00:43;;;;;;;58.43;34.47;;;-0.20;99.90;;;;;;4906352;28;19975;-60
2022/03/20 04:03:12;;;;;;;63.15;37.50;;;-0.20;99.90;;;;;;4904742;28;20509;-59
2022/03/20 04:05:39;;;;;;;75.35;41.45;;;-0.30;99.90;;;;;;4889771;29;20489;-59
2022/03/20 04:08:07;;;;;;;70.90;38.97;;;-0.30;99.90;;;;;;4907615;29;20544;-60
2022/03/20 04:10:34;;;;;;;67.75;37.33;;;-0.30;99.90;;;;;;4906002;28;20044;-60
2022/03/20 04:13:01;;;;;;;64.57;36.45;;;-0.30;99.90;;;;;;4905283;29;20043;-60
2022/03/20 04:15:30;;;;;;;63.85;36.58;;;-0.40;99.90;;;;;;4906565;29;20051;-60
2022/03/20 04:18:00;;;;;;;65.00;34.85;;;-0.30;99.90;;;;;;4904557;29;20043;-60
2022/03/20 04:20:27;;;;;;;67.90;38.35;;;-0.40;99.90;;;;;;4905626;28;20043;-60
2022/03/20 04:25:39;;;;;;;68.72;36.63;;;-0.40;99.90;;;;;;4906831;29;20070;-60
2022/03/20 04:28:07;;;;;;;75.65;38.33;;;-0.40;99.90;;;;;;4904957;29;20588;-60
2022/03/20 04:30:34;;;;;;;65.57;37.65;;;-0.40;99.90;;;;;;4905797;28;20552;-60
2022/03/20 04:33:02;;;;;;;64.68;34.45;;;-0.40;99.90;;;;;;4906008;29;20241;-59
2022/03/20 04:35:30;;;;;;;68.35;37.13;;;-0.40;99.90;;;;;;4887040;29;20584;-60
2022/03/20 04:38:04;;;;;;;80.88;40.90;;;-0.50;99.90;;;;;;4885981;29;20804;-60
2022/03/20 04:40:32;;;;;;;62.08;36.10;;;-0.40;99.90;;;;;;4886159;29;20569;-59
2022/03/20 04:42:59;;;;;;;74.25;41.40;;;-0.50;99.90;;;;;;4904754;29;20043;-60
2022/03/20 04:45:27;;;;;;;68.28;36.28;;;-0.50;99.90;;;;;;4904803;29;20047;-60
2022/03/20 04:59:12;;;;;;;71.35;39.55;;;-0.50;99.90;;;;;;4864203;29;20059;-60
2022/03/20 05:01:39;;;;;;;76.07;41.72;;;-0.50;99.90;;;;;;4897517;29;20059;-59
2022/03/20 05:04:06;;;;;;;82.82;45.05;;;-0.50;99.90;;;;;;4904376;29;20858;-60
2022/03/20 05:06:34;;;;;;;74.97;42.03;;;-0.50;99.90;;;;;;4905536;29;20051;-60
2022/03/20 05:14:32;;;;;;;68.40;38.47;;;-0.50;99.90;;;;;;4903613;29;20059;-60
2022/03/20 05:17:06;;;;;;;62.50;35.13;;;-0.50;99.90;;;;;;4903849;29;20445;-59
2022/03/20 05:19:34;;;;;;;67.28;36.08;;;-0.50;99.90;;;;;;4904066;28;20230;-59
2022/03/20 05:22:04;;;;;;;68.82;38.25;;;-0.50;99.90;;;;;;4905801;29;20062;-60
2022/03/20 05:24:31;;;;;;;68.38;37.70;;;-0.50;99.90;;;;;;4903433;29;20043;-60
2022/03/20 05:26:58;;;;;;;64.75;38.30;;;-0.50;99.90;;;;;;4904787;29;20150;-60
2022/03/20 05:29:25;;;;;;;61.47;34.25;;;-0.50;99.90;;;;;;4904541;28;20047;-60
2022/03/20 05:31:53;;;;;;;65.03;35.92;;;-0.50;99.90;;;;;;4889474;29;20580;-60
2022/03/20 05:34:20;;;;;;;65.65;36.45;;;-0.50;99.90;;;;;;4887364;29;20058;-60
2022/03/20 05:36:47;;;;;;;66.40;39.08;;;-0.50;99.90;;;;;;4902358;29;20051;-60
2022/03/20 05:39:15;;;;;;;63.80;37.17;;;-0.50;99.90;;;;;;4905320;28;20128;-60
2022/03/20 05:41:49;;;;;;;62.20;35.03;;;-0.50;99.90;;;;;;4904132;28;20214;-59
2022/03/20 05:44:26;;;;;;;61.50;34.65;;;-0.50;99.90;;;;;;4887868;29;20134;-60
2022/03/20 05:46:54;;;;;;;72.53;41.28;;;-0.40;99.90;;;;;;4871378;29;20046;-59
2022/03/20 05:49:23;;;;;;;71.65;40.63;;;-0.40;99.90;;;;;;4902060;29;20743;-59
2022/03/20 05:51:51;;;;;;;74.43;37.85;;;-0.40;99.90;;;;;;4903393;29;20133;-59
2022/03/20 05:54:18;;;;;;;73.07;39.75;;;-0.30;99.90;;;;;;4904769;29;20062;-59
2022/03/20 05:59:30;;;;;;;75.43;40.78;;;-0.20;99.90;;;;;;4904593;28;20110;-60
2022/03/20 06:01:57;;;;;;;69.57;36.35;;;0.00;99.90;;;;;;4904992;29;20134;-60
2022/03/20 06:04:24;;;;;;;71.65;39.55;;;0.10;99.90;;;;;;4902203;29;20043;-60
2022/03/20 06:06:51;;;;;;;77.88;40.50;;;0.20;99.90;;;;;;4904981;28;20043;-60
2022/03/20 06:09:18;;;;;;;65.57;37.33;;;0.30;99.90;;;;;;4904015;28;20079;-60
2022/03/20 06:11:45;;;;;;;77.68;41.47;;;0.30;99.90;;;;;;4904716;29;20051;-60
2022/03/20 06:14:12;;;;;;;75.97;41.75;;;0.40;99.90;;;;;;4903721;29;20042;-60
2022/03/20 06:16:39;;;;;;;73.43;40.45;;;0.50;99.90;;;;;;4901309;29;20047;-59
2022/03/20 06:19:07;;;;;;;69.45;40.60;;;0.60;99.90;;;;;;4901267;28;20905;-59
2022/03/20 06:21:34;;;;;;;69.55;37.45;;;0.70;99.90;;;;;;4903062;29;20043;-59
2022/03/20 06:24:02;;;;;;;71.72;39.85;;;0.80;99.90;;;;;;4886143;29;20134;-60
2022/03/20 06:26:29;;;;;;;68.68;38.83;;;0.90;99.90;;;;;;4888239;29;20315;-60
2022/03/20 06:28:56;;;;;;;72.63;39.75;;;1.00;99.90;;;;;;4886907;28;20046;-60
2022/03/20 06:31:23;;;;;;;67.18;38.33;;;1.10;99.90;;;;;;4887805;29;20059;-60
2022/03/20 06:34:00;;;;;;;70.55;40.42;;;1.20;99.90;;;;;;4887972;29;20042;-60
2022/03/20 06:36:28;;;;;;;70.30;40.38;;;1.30;99.90;;;;;;4905184;29;20062;-60
2022/03/20 06:38:55;;;;;;;68.32;39.00;;;1.40;99.90;;;;;;4884697;28;20975;-50
2022/03/20 06:41:22;;;;;;;70.03;40.20;;;1.50;99.90;;;;;;4901418;28;20508;-56
2022/03/20 06:43:50;;;;;;;77.82;42.13;;;1.70;99.90;;;;;;4903846;29;20043;-56
2022/03/20 06:46:16;;;;;;;75.13;40.35;;;2.00;99.90;;;;;;4902694;29;20569;-55
2022/03/20 06:48:53;;;;;;;73.97;40.30;;;2.30;99.90;;;;;;4887996;28;20245;-55
2022/03/20 06:51:22;;;;;;;69.57;38.80;;;2.50;99.90;;;;;;4887806;29;20076;-55
2022/03/20 06:53:49;;;;;;;68.82;39.70;;;2.80;99.90;;;;;;4888133;29;20587;-55
2022/03/20 06:56:16;;;;;;;67.75;39.00;;;3.20;99.90;;;;;;4905350;29;20062;-55
2022/03/20 06:58:44;;;;;;;70.10;37.88;;;3.50;99.90;;;;;;4886676;29;20220;-55
2022/03/20 07:01:10;;;;;;;68.57;36.72;;;3.80;99.90;;;;;;4904385;28;20036;-57
2022/03/20 07:03:39;;;;;;;69.85;37.42;;;4.00;99.90;;;;;;4903052;29;20354;-55
2022/03/20 07:06:05;;;;;;;59.67;35.58;;;4.30;99.90;;;;;;4885053;29;20339;-56
2022/03/20 07:08:33;;;;;;;62.05;36.78;;;4.60;99.90;;;;;;4903831;29;20043;-57
2022/03/20 07:11:00;;;;;;;61.40;37.83;;;4.80;99.90;;;;;;4886936;29;20042;-56
2022/03/20 07:16:16;;;;;;;67.63;36.75;;;5.30;99.90;;;;;;4903895;29;20135;-56
2022/03/20 07:18:45;;;;;;;56.08;34.88;;;5.60;99.90;;;;;;4904675;28;20594;-56
2022/03/20 07:21:14;;;;;;;64.53;38.70;;;5.70;99.90;;;;;;4874595;29;20792;-56
2022/03/20 07:23:42;;;;;;;62.58;36.33;;;5.80;99.90;;;;;;4908022;29;20198;-56
2022/03/20 07:31:40;;;;;;;64.30;38.28;;;5.80;99.90;;;;;;4908167;29;20142;-57
2022/03/20 07:34:07;;;;;;;58.55;35.20;;;5.70;99.90;;;;;;4889218;29;20046;-56
2022/03/20 07:36:34;;;;;;;;;;;5.90;99.90;;;;;;4905874;28;20043;-56
2022/03/20 07:39:01;;;;;;;63.13;36.37;;;6.20;99.90;;;;;;4887248;28;19922;-56
2022/03/20 07:41:28;;;;;;;62.10;39.08;;;6.60;99.90;;;;;;4905889;28;20989;-56
2022/03/20 07:43:57;;;;;;;66.60;38.47;;;6.90;99.90;;;;;;4888467;29;20356;-56
2022/03/20 07:46:24;;;;;;;67.40;37.08;;;7.20;99.90;;;;;;4905871;28;20050;-56
2022/03/20 07:48:51;;;;;;;64.43;36.22;;;7.50;99.90;;;;;;4877897;29;20748;-53
2022/03/20 07:51:20;;;;;;;;;;;7.70;99.90;;;;;;4902658;29;20854;-58
2022/03/20 07:53:48;;;;;;;65.28;37.17;;;7.90;99.90;;;;;;4904725;29;19923;-55
2022/03/20 07:56:18;;;;;;;63.40;36.17;;;8.10;99.90;;;;;;4905990;29;20043;-55
2022/03/20 07:58:45;;;;;;;61.08;35.70;;;8.20;99.90;;;;;;4904823;28;20866;-55
2022/03/20 08:01:12;;;;;;;58.95;35.05;;;8.50;99.90;;;;;;4907085;28;20050;-54
2022/03/20 08:03:41;;;;;;;62.05;35.90;;;8.90;98.50;;;;;;4906646;29;20218;-55
2022/03/20 08:06:09;;;;;;;63.13;37.83;;;9.20;97.10;;;;;;4904329;28;20470;-55
2022/03/20 08:08:43;;;;;;;53.97;33.63;;;9.50;96.70;;;;;;4887589;29;20058;-54
2022/03/20 08:11:09;;;;;;;59.22;35.03;;;9.80;95.50;;;;;;4905777;28;20039;-55
2022/03/20 08:13:36;;;;;;;52.50;33.20;;;10.20;93.80;;;;;;4904888;29;20039;-60
2022/03/20 08:16:04;;;;;;;55.90;34.53;;;10.40;92.20;;;;;;4906448;29;20159;-58
2022/03/20 08:18:32;;;;;;;64.38;37.05;;;10.80;92.30;;;;;;4905748;29;20054;-54
2022/03/20 08:20:59;;;;;;;55.28;34.15;;;11.10;91.00;;;;;;4905158;28;20047;-57
2022/03/20 08:23:26;;;;;;;57.92;35.33;;;11.40;89.30;;;;;;4904466;29;20186;-54
2022/03/20 08:25:52;;;;;;;;;;;11.70;88.10;;;;;;4904264;29;20043;-56
2022/03/20 08:28:19;;;;;;;58.10;33.63;;;12.00;84.20;;;;;;4903758;28;20148;-55
2022/03/20 08:30:46;;;;;;;;;;;12.20;81.20;;;;;;4904792;29;20846;-58
2022/03/20 08:33:15;;;;;;;54.28;32.30;;;12.30;78.00;;;;;;4905470;29;20049;-54
2022/03/20 08:35:42;;;;;;;54.53;33.83;;;12.40;77.80;;;;;;4905465;29;20058;-68
2022/03/20 08:38:09;;;;;;;51.70;32.55;;;12.60;77.40;;;;;;4904596;29;20043;-57
2022/03/20 08:40:40;;;;;;;56.28;33.65;;;12.80;73.40;;;;;;4903837;28;20078;-54
2022/03/20 08:43:09;;;;;;;55.95;31.98;;;12.90;73.70;;;;;;4903245;28;20044;-55
2022/03/20 08:45:36;;;;;;;52.17;33.65;;;13.20;73.00;;;;;;4902168;29;20728;-54
2022/03/20 08:48:03;;;;;;;48.53;30.35;;;13.40;72.10;;;;;;4888259;29;20446;-54
2022/03/20 08:50:30;;;;;;;46.90;30.00;;;13.60;70.90;;;;;;4903771;28;20146;-55
2022/03/20 08:52:57;;;;;;;47.67;31.88;;;13.80;70.10;;;;;;4904396;29;20047;-54
2022/03/20 08:55:25;;;;;;;45.72;29.85;;;14.00;67.10;;;;;;4887439;29;20770;-54
2022/03/20 08:57:53;;;;;;;45.83;28.67;;;14.10;63.70;;;;;;4903042;29;20409;-55
2022/03/20 09:00:22;;;;;;;45.88;29.08;;;14.20;64.50;;;;;;4904539;28;20047;-56
2022/03/20 09:02:50;;;;;;;46.85;31.23;;;14.40;63.10;;;;;;4904735;28;20053;-55
2022/03/20 09:05:18;;;;;;;44.47;30.55;;;14.50;62.30;;;;;;4904531;29;20245;-55
2022/03/20 09:07:47;;;;;;;49.30;31.10;;;14.70;60.60;;;;;;4904220;29;20047;-56
2022/03/20 09:10:15;;;;;;;45.70;30.08;;;14.90;60.80;;;;;;4888061;29;20110;-57
2022/03/20 09:12:43;;;;;;;44.40;29.92;;;15.10;58.30;;;;;;4904804;29;20751;-55
2022/03/20 09:15:13;;;;;;;44.33;29.73;;;15.10;58.40;;;;;;4903840;29;20047;-55
2022/03/20 09:20:34;;;;;;;45.95;30.70;;;15.30;59.10;;;;;;4903722;28;20586;-55
2022/03/20 09:23:01;;;;;;;43.22;30.25;;;15.40;57.30;;;;;;4904754;29;20043;-55
2022/03/20 09:25:28;;;;;;;45.60;30.30;;;15.60;57.30;;;;;;4886358;29;20230;-58
2022/03/20 09:28:02;;;;;;;42.05;29.35;;;15.60;58.00;;;;;;4904510;29;20154;-57
2022/03/20 09:30:30;;;;;;;42.38;29.15;;;15.80;57.80;;;;;;4902921;28;20255;-56
2022/03/20 09:32:57;;;;;;;44.08;28.08;;;16.00;56.70;;;;;;4904998;29;20035;-63
2022/03/20 09:35:23;;;;;;;43.75;29.17;;;16.10;56.10;;;;;;4904407;28;20942;-61
2022/03/20 09:37:50;;;;;;;47.35;31.83;;;16.30;56.70;;;;;;4905091;29;20050;-61
2022/03/20 09:40:22;;;;;;;44.95;31.15;;;16.40;56.20;;;;;;4901751;28;20817;-60
2022/03/20 09:42:49;;;;;;;39.80;28.40;;;16.60;56.00;;;;;;4901369;29;20325;-59
2022/03/20 09:45:17;;;;;;;40.20;27.88;;;16.90;55.10;;;;;;4903598;29;20054;-56
2022/03/20 09:47:45;;;;;;;38.78;28.95;;;17.10;54.80;;;;;;4904668;29;20047;-54
2022/03/20 09:50:13;;;;;;;40.72;28.33;;;17.40;53.90;;;;;;4902351;28;20039;-55
2022/03/20 09:52:42;;;;;;;42.20;30.85;;;17.50;53.40;;;;;;4904840;29;20039;-54
2022/03/20 09:55:10;;;;;;;45.17;30.27;;;17.50;52.30;;;;;;4905470;28;20043;-53
2022/03/20 09:57:37;;;;;;;36.17;25.38;;;17.60;52.70;;;;;;4904164;29;20110;-52
2022/03/20 10:00:11;;;;;;;40.67;28.85;;;17.70;53.00;;;;;;4902298;28;20124;-52
2022/03/20 10:02:38;;;;;;;38.17;28.05;;;17.80;51.50;;;;;;4905440;29;20548;-52
2022/03/20 10:05:08;;;;;;;42.10;28.77;;;17.80;50.50;;;;;;4904116;28;20129;-52
2022/03/20 10:07:43;;;;;;;36.40;25.92;;;17.90;52.00;;;;;;4904774;29;20151;-53
2022/03/20 10:10:23;;;;;;;43.15;27.98;;;18.00;50.80;;;;;;4903398;28;20043;-52
2022/03/20 10:12:56;;;;;;;41.08;25.63;;;18.10;48.90;;;;;;4902651;29;20577;-54
2022/03/20 10:15:30;;;;;;;36.17;27.13;;;18.00;49.40;;;;;;4901759;29;20054;-56
2022/03/20 10:18:05;;;;;;;35.20;24.58;;;18.00;48.50;;;;;;4904572;29;20142;-55
2022/03/20 10:20:36;;;;;;;37.25;24.90;;;18.20;47.90;;;;;;4901112;28;20058;-54
2022/03/20 10:23:25;;;;;;;33.05;23.23;;;18.40;47.40;;;;;;4901531;29;20218;-54
2022/03/20 10:25:52;;;;;;;35.63;25.83;;;18.60;47.70;;;;;;4905603;29;20047;-55
2022/03/20 10:28:19;;;;;;;37.08;25.60;;;18.70;47.10;;;;;;4904325;29;20366;-55
2022/03/20 10:31:01;;;;;;;31.95;23.30;;;18.80;44.10;;;;;;4902326;28;20491;-55
2022/03/20 10:33:28;;;;;;;35.10;23.67;;;18.70;45.70;;;;;;4886861;29;20902;-56
2022/03/20 10:36:32;;;;;;;31.83;21.38;;;18.80;44.50;;;;;;4900846;28;20591;-56
2022/03/20 10:39:00;;;;;;;28.02;20.92;;;18.90;43.10;;;;;;4791271;29;20510;-56
2022/03/20 10:41:38;;;;;;;37.78;24.67;;;18.90;44.10;;;;;;4870120;29;20063;-56
2022/03/20 10:44:28;;;;;;;33.85;23.98;;;19.10;43.10;;;;;;4904995;29;20858;-55
2022/03/20 10:47:14;;;;;;;33.92;23.73;;;19.20;43.40;;;;;;4903056;29;20055;-55
2022/03/20 10:49:47;;;;;;;40.17;25.15;;;19.20;43.50;;;;;;4902927;29;20402;-55
2022/03/20 10:52:22;;;;;;;40.72;26.80;;;19.00;44.80;;;;;;4913513;28;20971;-55
2022/03/20 10:54:53;;;;;;;38.05;26.67;;;19.00;43.50;;;;;;4908939;29;20059;-56
2022/03/20 10:57:21;;;;;;;34.13;24.17;;;18.80;43.80;;;;;;4906659;29;20062;-54
2022/03/20 10:59:59;;;;;;;35.28;25.40;;;18.60;43.00;;;;;;4905317;28;20141;-54
2022/03/20 11:02:27;;;;;;;37.35;26.08;;;18.30;44.10;;;;;;4888906;29;20043;-54
2022/03/20 11:04:54;;;;;;;31.27;24.25;;;18.10;44.60;;;;;;4889298;29;20043;-54
2022/03/20 11:07:23;;;;;;;34.10;24.13;;;17.90;44.60;;;;;;4904938;29;20597;-54
2022/03/20 11:09:53;;;;;;;33.50;24.48;;;17.80;45.00;;;;;;4907091;28;20039;-54
2022/03/20 11:12:33;;;;;;;38.20;23.33;;;17.60;45.80;;;;;;4908272;28;20217;-54
2022/03/20 11:15:08;;;;;;;34.38;24.75;;;17.50;45.50;;;;;;4889617;29;20174;-55
2022/03/20 11:17:44;;;;;;;33.47;22.88;;;17.50;45.90;;;;;;4907400;29;20375;-54
2022/03/20 11:20:13;;;;;;;33.35;24.08;;;17.50;45.60;;;;;;4905657;28;20129;-55
2022/03/20 11:23:04;;;;;;;35.50;26.08;;;17.40;46.20;;;;;;4905005;29;20118;-55
2022/03/20 11:25:35;;;;;;;32.20;23.83;;;17.30;45.50;;;;;;4907659;29;20055;-55
2022/03/20 11:28:05;;;;;;;33.83;24.27;;;17.10;47.30;;;;;;4906116;29;20350;-54
2022/03/20 11:30:33;;;;;;;33.83;24.17;;;17.10;48.60;;;;;;4906931;28;20206;-56
2022/03/20 11:33:01;;;;;;;36.08;25.45;;;17.30;48.10;;;;;;4908508;29;20063;-55
2022/03/20 11:35:30;;;;;;;32.83;24.45;;;17.50;48.10;;;;;;4889389;29;20158;-54
2022/03/20 11:38:19;;;;;;;34.10;24.23;;;17.70;46.60;;;;;;4908477;29;20146;-55
2022/03/20 11:41:09;;;;;;;33.95;22.80;;;17.70;46.10;;;;;;4890275;29;20150;-54
2022/03/20 11:43:38;;;;;;;35.58;24.83;;;17.80;45.20;;;;;;4888855;29;20274;-54
2022/03/20 11:46:34;;;;;;;36.90;24.73;;;18.00;46.70;;;;;;4891735;29;20896;-54
2022/03/20 11:49:20;;;;;;;32.13;21.85;;;18.10;46.10;;;;;;4905683;29;20043;-54
2022/03/20 11:52:07;;;;;;;35.50;25.23;;;18.30;45.30;;;;;;4907652;29;20043;-55
2022/03/20 11:54:40;;;;;;;31.02;23.65;;;18.60;45.50;;;;;;4907437;29;20039;-54
2022/03/20 11:57:25;;;;;;;29.05;21.50;;;18.60;45.90;;;;;;4907576;29;20556;-54
2022/03/20 11:59:57;;;;;;;33.00;22.85;;;18.70;45.70;;;;;;4907076;28;20047;-55
2022/03/20 12:03:10;;;;;;;36.92;22.35;;;18.80;43.90;;;;;;4907856;29;20047;-55
2022/03/20 12:05:56;;;;;;;34.60;22.63;;;18.90;41.50;;;;;;4903751;29;20619;-55
2022/03/20 12:09:02;;;;;;;32.47;20.63;;;18.90;41.20;;;;;;4887529;29;20186;-54
2022/03/20 12:11:29;;;;;;;26.10;20.05;;;18.90;42.60;;;;;;4887992;29;20043;-55
2022/03/20 12:14:34;;;;;;;27.80;20.50;;;19.00;42.80;;;;;;4886698;29;20126;-56
2022/03/20 12:17:01;;;;;;;28.48;20.17;;;18.90;40.40;;;;;;4890882;29;20039;-55
2022/03/20 12:19:38;;;;;;;25.95;19.50;;;19.00;40.10;;;;;;4904494;28;20031;-55
2022/03/20 12:22:14;;;;;;;25.95;19.30;;;19.00;40.30;;;;;;4906875;29;20872;-56
2022/03/20 12:24:49;;;;;;;26.88;18.83;;;19.00;40.50;;;;;;4887945;29;20335;-54
2022/03/20 12:27:24;;;;;;;27.70;18.67;;;19.10;39.30;;;;;;4906836;29;20047;-54
2022/03/20 12:30:21;;;;;;;22.20;17.55;;;19.00;40.40;;;;;;4906279;28;20640;-53
2022/03/20 12:32:48;;;;;;;29.08;17.65;;;18.90;39.70;;;;;;4907726;29;20046;-56
2022/03/20 12:35:18;;;;;;;34.15;18.60;;;18.90;39.60;;;;;;4904960;29;20047;-54
2022/03/20 12:37:45;;;;;;;24.33;17.35;;;19.10;40.20;;;;;;4907315;29;20035;-54
2022/03/20 12:40:23;;;;;;;24.10;17.77;;;19.20;37.80;;;;;;4904028;28;20039;-56
2022/03/20 12:43:13;;;;;;;24.73;17.95;;;19.30;38.70;;;;;;4905318;29;20058;-54
2022/03/20 12:45:43;;;;;;;28.38;19.35;;;19.30;39.30;;;;;;4905937;29;20150;-55
2022/03/20 12:48:16;;;;;;;25.23;17.67;;;19.30;38.30;;;;;;4906689;29;20059;-54
2022/03/20 12:50:46;;;;;;;24.70;17.65;;;19.40;38.50;;;;;;4903388;29;20043;-55
2022/03/20 12:53:15;;;;;;;23.58;16.67;;;19.40;39.00;;;;;;4905897;29;20050;-55
2022/03/20 12:56:00;;;;;;;22.90;16.75;;;19.40;39.70;;;;;;4905162;29;20043;-55
2022/03/20 12:58:28;;;;;;;22.15;16.63;;;19.50;37.80;;;;;;4904956;29;20413;-55
2022/03/20 13:00:55;;;;;;;21.65;16.70;;;19.70;37.00;;;;;;4905815;28;20889;-54
2022/03/20 13:03:25;;;;;;;24.30;17.02;;;19.70;35.90;;;;;;4904520;29;20055;-55
2022/03/20 13:05:57;;;;;;;21.48;14.98;;;19.70;35.30;;;;;;4905552;29;20328;-55
2022/03/20 13:08:48;;;;;;;23.20;17.77;;;19.70;35.20;;;;;;4885982;29;20345;-57
2022/03/20 13:14:12;;;;;;;23.27;16.77;;;19.80;34.10;;;;;;4895372;29;20039;-55
2022/03/20 13:16:59;;;;;;;23.33;17.38;;;19.80;34.60;;;;;;4906004;28;20560;-57
2022/03/20 13:19:32;;;;;;;23.30;15.25;;;19.90;34.00;;;;;;4902417;28;20062;-57
2022/03/20 13:22:07;;;;;;;25.85;16.98;;;19.90;34.30;;;;;;4906777;29;20043;-57
2022/03/20 13:24:36;;;;;;;24.85;16.88;;;19.90;35.70;;;;;;4889925;29;20448;-57
2022/03/20 13:27:05;;;;;;;24.70;15.82;;;19.70;34.00;;;;;;4906141;28;20515;-57
2022/03/20 13:29:34;;;;;;;19.83;15.20;;;19.60;35.70;;;;;;4904863;28;20040;-57